createdAt,value
2022-07-30T00:01:56.412Z,92153.63
2022-07-30T00:04:28.870Z,92155.59
2022-07-30T00:07:03.676Z,92159.13
2022-07-30T00:09:36.596Z,92155.09
2022-07-30T00:12:09.339Z,92149.19
2022-07-30T00:14:42.343Z,92143.78
2022-07-30T00:17:14.775Z,92143.31
2022-07-30T00:19:47.406Z,92148.34
2022-07-30T00:22:19.814Z,92144.59
2022-07-30T00:24:52.172Z,92150.91
2022-07-30T00:27:25.105Z,92150.44
2022-07-30T00:29:58.204Z,92145.38
2022-07-30T00:32:30.988Z,92153.75
2022-07-30T00:35:04.023Z,92152.56
2022-07-30T00:37:36.493Z,92154.06
2022-07-30T00:40:09.947Z,92147.78
2022-07-30T00:42:44.249Z,92148.53
2022-07-30T00:45:18.533Z,92150.19
2022-07-30T00:47:51.111Z,92143.09
2022-07-30T00:50:23.522Z,92148.97
2022-07-30T00:52:56.438Z,92145.13
2022-07-30T00:55:28.878Z,92135.00
2022-07-30T00:58:01.632Z,92132.47
2022-07-30T01:00:35.275Z,92137.75
2022-07-30T01:03:07.735Z,92144.56
2022-07-30T01:05:40.149Z,92145.31
2022-07-30T01:08:12.601Z,92145.50
2022-07-30T01:10:45.131Z,92145.75
2022-07-30T01:13:17.859Z,92142.25
2022-07-30T01:15:51.094Z,92145.41
2022-07-30T01:18:45.667Z,92140.97
2022-07-30T01:21:23.904Z,92141.56
2022-07-30T01:24:06.046Z,92142.59
2022-07-30T01:26:39.376Z,92140.38
2022-07-30T01:29:14.882Z,92142.78
2022-07-30T01:31:49.124Z,92138.94
2022-07-30T01:34:23.640Z,92139.13
2022-07-30T01:36:58.309Z,92136.81
2022-07-30T01:39:31.779Z,92140.16
2022-07-30T01:42:08.457Z,92138.94
2022-07-30T01:44:43.126Z,92135.78
2022-07-30T01:47:17.050Z,92142.88
2022-07-30T01:49:52.342Z,92136.47
2022-07-30T01:52:30.275Z,92129.75
2022-07-30T01:55:03.230Z,92126.38
2022-07-30T01:57:38.764Z,92134.53
2022-07-30T02:00:12.657Z,92132.72
2022-07-30T02:02:54.121Z,92132.63
2022-07-30T02:05:30.727Z,92123.66
2022-07-30T02:08:09.995Z,92127.34
2022-07-30T02:10:45.847Z,92126.16
2022-07-30T02:13:23.160Z,92122.50
2022-07-30T02:15:59.500Z,92126.22
2022-07-30T02:18:40.879Z,92117.03
2022-07-30T02:21:17.408Z,92110.06
2022-07-30T02:23:52.698Z,92115.91
2022-07-30T02:26:27.495Z,92112.50
2022-07-30T02:29:02.943Z,92114.31
2022-07-30T02:31:38.557Z,92113.63
2022-07-30T02:34:13.381Z,92118.97
2022-07-30T02:36:47.151Z,92115.50
2022-07-30T02:39:21.083Z,92117.25
2022-07-30T02:41:56.318Z,92120.41
2022-07-30T02:44:30.683Z,92110.63
2022-07-30T02:47:04.911Z,92108.00
2022-07-30T02:50:02.087Z,92104.84
2022-07-30T02:52:36.052Z,92100.75
2022-07-30T02:55:10.977Z,92099.09
2022-07-30T02:57:46.085Z,92096.56
2022-07-30T03:00:20.706Z,92101.34
2022-07-30T03:02:56.631Z,92089.94
2022-07-30T03:05:30.399Z,92096.56
2022-07-30T03:08:07.701Z,92090.88
2022-07-30T03:10:43.823Z,92088.56
2022-07-30T03:13:17.862Z,92087.81
2022-07-30T03:15:52.552Z,92088.56
2022-07-30T03:18:32.486Z,92094.16
2022-07-30T03:21:07.426Z,92092.91
2022-07-30T03:23:41.782Z,92096.31
2022-07-30T03:26:17.314Z,92091.94
2022-07-30T03:28:50.970Z,92086.44
2022-07-30T03:31:24.532Z,92098.75
2022-07-30T03:34:02.052Z,92081.47
2022-07-30T03:36:35.442Z,92090.47
2022-07-30T03:39:08.811Z,92089.72
2022-07-30T03:41:42.392Z,92093.28
2022-07-30T03:44:19.815Z,92099.13
2022-07-30T03:46:54.897Z,92098.56
2022-07-30T03:49:28.686Z,92100.69
2022-07-30T03:52:02.262Z,92104.06
2022-07-30T03:54:35.093Z,92103.97
2022-07-30T03:57:26.223Z,92108.22
2022-07-30T03:59:58.719Z,92107.69
2022-07-30T04:02:40.000Z,92115.06
2022-07-30T04:05:37.737Z,92115.91
2022-07-30T04:08:14.162Z,92109.81
2022-07-30T04:10:47.716Z,92115.72
2022-07-30T04:13:36.802Z,92109.91
2022-07-30T04:16:39.906Z,92113.50
2022-07-30T04:19:15.086Z,92124.09
2022-07-30T04:21:49.079Z,92122.28
2022-07-30T04:24:23.377Z,92118.38
2022-07-30T04:26:56.802Z,92120.75
2022-07-30T04:29:29.230Z,92115.56
2022-07-30T04:32:01.761Z,92127.66
2022-07-30T04:34:55.384Z,92124.50
2022-07-30T04:37:48.019Z,92123.06
2022-07-30T04:40:20.492Z,92125.63
2022-07-30T04:42:52.864Z,92125.06
2022-07-30T04:45:25.511Z,92131.16
2022-07-30T04:48:01.904Z,92132.47
2022-07-30T04:50:54.694Z,92131.75
2022-07-30T04:53:29.332Z,92125.53
2022-07-30T04:56:06.576Z,92119.44
2022-07-30T04:58:40.719Z,92106.75
2022-07-30T05:01:18.782Z,92114.97
2022-07-30T05:04:10.990Z,92113.22
2022-07-30T05:06:45.236Z,92120.47
2022-07-30T05:09:17.993Z,92118.63
2022-07-30T05:11:51.063Z,92118.00
2022-07-30T05:14:24.218Z,92115.00
2022-07-30T05:16:56.720Z,92113.09
2022-07-30T05:19:29.489Z,92113.06
2022-07-30T05:22:06.568Z,92116.75
2022-07-30T05:24:46.906Z,92110.25
2022-07-30T05:27:20.010Z,92115.16
2022-07-30T05:29:52.427Z,92113.56
2022-07-30T05:32:28.223Z,92115.69
2022-07-30T05:35:00.708Z,92111.84
2022-07-30T05:37:34.375Z,92117.06
2022-07-30T05:40:07.682Z,92119.19
2022-07-30T05:42:58.593Z,92121.41
2022-07-30T05:45:31.103Z,92120.56
2022-07-30T05:48:04.008Z,92119.63
2022-07-30T05:50:36.896Z,92117.28
2022-07-30T05:53:09.910Z,92121.72
2022-07-30T05:56:02.524Z,92125.03
2022-07-30T05:59:01.175Z,92124.44
2022-07-30T06:01:53.558Z,92124.66
2022-07-30T06:04:34.742Z,92122.91
2022-07-30T06:07:10.087Z,92122.28
2022-07-30T06:09:43.297Z,92136.50
2022-07-30T06:12:16.318Z,92137.84
2022-07-30T06:14:48.968Z,92133.41
2022-07-30T06:17:28.471Z,92138.09
2022-07-30T06:20:17.195Z,92132.84
2022-07-30T06:23:08.246Z,92128.47
2022-07-30T06:26:01.488Z,92132.69
2022-07-30T06:28:38.764Z,92122.97
2022-07-30T06:31:20.203Z,92128.00
2022-07-30T06:33:52.699Z,92126.16
2022-07-30T06:36:25.208Z,92116.72
2022-07-30T06:39:04.704Z,92116.34
2022-07-30T06:41:57.754Z,92119.78
2022-07-30T06:44:34.868Z,92120.19
2022-07-30T06:47:30.644Z,92110.28
2022-07-30T06:50:05.166Z,92097.34
2022-07-30T06:52:37.560Z,92099.25
2022-07-30T06:55:10.142Z,92095.44
2022-07-30T06:57:50.056Z,92102.28
2022-07-30T07:00:48.375Z,92099.59
2022-07-30T07:03:21.120Z,92099.56
2022-07-30T07:05:53.489Z,92099.94
2022-07-30T07:08:25.949Z,92098.78
2022-07-30T07:11:00.987Z,92104.16
2022-07-30T07:13:37.103Z,92101.03
2022-07-30T07:16:13.180Z,92107.47
2022-07-30T07:18:49.505Z,92100.50
2022-07-30T07:21:22.804Z,92099.31
2022-07-30T07:23:59.675Z,92104.53
2022-07-30T07:26:58.401Z,92107.09
2022-07-30T07:29:32.671Z,92096.34
2022-07-30T07:32:08.046Z,92101.13
2022-07-30T07:35:00.121Z,92103.06
2022-07-30T07:37:32.618Z,92102.25
2022-07-30T07:40:06.640Z,92108.88
2022-07-30T07:42:43.462Z,92103.66
2022-07-30T07:45:16.656Z,92108.16
2022-07-30T07:48:05.750Z,92107.19
2022-07-30T07:51:01.463Z,92109.47
2022-07-30T07:53:37.153Z,92112.22
2022-07-30T07:56:09.568Z,92108.22
2022-07-30T07:58:44.158Z,92112.69
2022-07-30T08:01:19.166Z,92105.63
2022-07-30T08:04:20.786Z,92109.22
2022-07-30T08:07:11.726Z,92104.50
2022-07-30T08:10:00.241Z,92103.66
2022-07-30T08:13:02.490Z,92107.00
2022-07-30T08:15:55.544Z,92105.84
2022-07-30T08:19:00.865Z,92096.03
2022-07-30T08:21:37.744Z,92098.56
2022-07-30T08:24:10.542Z,92101.59
2022-07-30T08:26:42.964Z,92099.34
2022-07-30T08:29:17.245Z,92103.59
2022-07-30T08:31:50.829Z,92094.66
2022-07-30T08:34:25.789Z,92096.28
2022-07-30T08:37:00.497Z,92092.81
2022-07-30T08:39:33.004Z,92092.91
2022-07-30T08:42:07.059Z,92082.72
2022-07-30T08:44:41.875Z,92084.66
2022-07-30T08:47:17.879Z,92079.69
2022-07-30T08:50:16.881Z,92083.78
2022-07-30T08:53:28.162Z,92086.31
2022-07-30T08:56:01.061Z,92085.56
2022-07-30T08:58:34.773Z,92081.97
2022-07-30T09:01:07.267Z,92078.66
2022-07-30T09:03:44.434Z,92081.66
2022-07-30T09:06:17.934Z,92070.34
2022-07-30T09:08:50.381Z,92068.47
2022-07-30T09:11:23.314Z,92073.28
2022-07-30T09:14:08.629Z,92063.41
2022-07-30T09:16:43.415Z,92062.09
2022-07-30T09:19:17.407Z,92068.38
2022-07-30T09:21:59.105Z,92048.88
2022-07-30T09:24:54.767Z,92054.34
2022-07-30T09:27:48.566Z,92052.75
2022-07-30T09:30:53.038Z,92048.47
2022-07-30T09:33:48.376Z,92049.28
2022-07-30T09:36:39.411Z,92047.34
2022-07-30T09:39:39.863Z,92055.72
2022-07-30T09:42:26.067Z,92055.31
2022-07-30T09:45:06.056Z,92052.94
2022-07-30T09:47:40.140Z,92048.28
2022-07-30T09:50:17.946Z,92043.97
2022-07-30T09:53:07.083Z,92042.34
2022-07-30T09:55:41.307Z,92034.25
2022-07-30T09:58:17.323Z,92044.00
2022-07-30T10:01:00.811Z,92039.38
2022-07-30T10:03:46.617Z,92035.81
2022-07-30T10:06:41.935Z,92029.94
2022-07-30T10:09:37.276Z,92037.69
2022-07-30T10:12:13.835Z,92020.28
2022-07-30T10:14:54.176Z,92020.88
2022-07-30T10:17:26.667Z,92022.41
2022-07-30T10:20:29.566Z,92015.06
2022-07-30T10:23:28.916Z,92012.31
2022-07-30T10:26:23.613Z,92007.28
2022-07-30T10:29:34.086Z,92002.88
2022-07-30T10:32:07.404Z,92003.13
2022-07-30T10:34:42.991Z,92002.00
2022-07-30T10:37:16.183Z,92003.44
2022-07-30T10:39:56.199Z,91993.41
2022-07-30T10:42:46.167Z,91984.19
2022-07-30T10:45:23.592Z,91990.81
2022-07-30T10:47:57.219Z,91984.81
2022-07-30T10:50:30.766Z,91989.00
2022-07-30T10:53:03.793Z,91984.13
2022-07-30T10:55:39.077Z,91980.69
2022-07-30T10:58:14.368Z,91981.78
2022-07-30T11:01:01.156Z,91968.53
2022-07-30T11:03:41.357Z,91976.59
2022-07-30T11:06:27.958Z,91972.50
2022-07-30T11:09:00.655Z,91962.16
2022-07-30T11:12:01.778Z,91954.28
2022-07-30T11:15:07.403Z,91956.81
2022-07-30T11:18:03.319Z,91953.88
2022-07-30T11:20:36.990Z,91947.94
2022-07-30T11:23:14.114Z,91950.31
2022-07-30T11:25:51.463Z,91941.72
2022-07-30T11:28:35.395Z,91936.72
2022-07-30T11:31:49.911Z,91940.19
2022-07-30T11:34:26.988Z,91945.94
2022-07-30T11:37:19.202Z,91937.75
2022-07-30T11:40:10.171Z,91941.34
2022-07-30T11:42:42.838Z,91938.13
2022-07-30T11:45:29.725Z,91934.44
2022-07-30T11:48:10.104Z,91937.50
2022-07-30T11:50:43.256Z,91920.25
2022-07-30T11:53:18.212Z,91924.81
2022-07-30T11:55:55.170Z,91929.38
2022-07-30T11:58:29.466Z,91915.03
2022-07-30T12:01:03.496Z,91920.91
2022-07-30T12:03:43.937Z,91910.81
2022-07-30T12:06:18.967Z,91918.34
2022-07-30T12:08:57.868Z,91912.75
2022-07-30T12:11:32.479Z,91920.69
2022-07-30T12:14:05.267Z,91904.44
2022-07-30T12:16:37.672Z,91903.56
2022-07-30T12:19:10.043Z,91901.31
2022-07-30T12:21:43.382Z,91890.03
2022-07-30T12:24:15.834Z,91892.88
2022-07-30T12:26:48.296Z,91886.75
2022-07-30T12:29:20.790Z,91885.78
2022-07-30T12:31:53.298Z,91872.06
2022-07-30T12:34:26.971Z,91868.84
2022-07-30T12:37:08.066Z,91857.69
2022-07-30T12:39:40.669Z,91856.66
2022-07-30T12:42:18.408Z,91858.63
2022-07-30T12:44:50.758Z,91851.28
2022-07-30T12:47:25.066Z,91846.91
2022-07-30T12:49:59.561Z,91833.84
2022-07-30T12:52:37.003Z,91835.78
2022-07-30T12:55:11.922Z,91841.63
2022-07-30T12:58:00.771Z,91831.88
2022-07-30T13:00:47.534Z,91830.84
2022-07-30T13:03:21.276Z,91829.16
2022-07-30T13:05:55.654Z,91825.34
2022-07-30T13:08:50.480Z,91821.13
2022-07-30T13:11:24.628Z,91818.13
2022-07-30T13:13:56.995Z,91816.91
2022-07-30T13:16:32.036Z,91812.88
2022-07-30T13:19:04.967Z,91808.34
2022-07-30T13:21:38.101Z,91804.91
2022-07-30T13:24:11.544Z,91799.09
2022-07-30T13:26:50.986Z,91801.34
2022-07-30T13:29:23.444Z,91799.13
2022-07-30T13:31:55.792Z,91798.38
2022-07-30T13:34:28.173Z,91792.97
2022-07-30T13:37:00.969Z,91792.53
2022-07-30T13:39:34.260Z,91802.38
2022-07-30T13:42:06.858Z,91805.28
2022-07-30T13:44:39.253Z,91804.81
2022-07-30T13:47:11.643Z,91802.19
2022-07-30T13:49:45.659Z,91806.13
2022-07-30T13:52:18.163Z,91808.06
2022-07-30T13:54:52.978Z,91810.44
2022-07-30T13:57:25.397Z,91811.22
2022-07-30T13:59:57.825Z,91807.09
2022-07-30T14:02:30.979Z,91803.19
2022-07-30T14:05:06.420Z,91808.50
2022-07-30T14:07:39.876Z,91811.97
2022-07-30T14:10:12.959Z,91816.94
2022-07-30T14:12:45.330Z,91809.56
2022-07-30T14:15:18.065Z,91803.94
2022-07-30T14:17:56.111Z,91806.97
2022-07-30T14:20:29.724Z,91806.72
2022-07-30T14:23:02.155Z,91799.25
2022-07-30T14:25:35.243Z,91800.75
2022-07-30T14:28:07.639Z,91797.56
2022-07-30T14:30:40.091Z,91794.25
2022-07-30T14:33:13.233Z,91791.38
2022-07-30T14:35:45.710Z,91783.78
2022-07-30T14:38:18.097Z,91786.69
2022-07-30T14:40:51.099Z,91791.13
2022-07-30T14:43:26.613Z,91794.91
2022-07-30T14:45:58.923Z,91799.69
2022-07-30T14:48:31.385Z,91806.81
2022-07-30T14:51:14.773Z,91807.31
2022-07-30T14:53:50.866Z,91799.78
2022-07-30T14:56:24.702Z,91794.44
2022-07-30T14:58:58.037Z,91793.53
2022-07-30T15:01:30.619Z,91787.19
2022-07-30T15:04:03.084Z,91786.97
2022-07-30T15:06:35.575Z,91790.13
2022-07-30T15:09:08.733Z,91786.44
2022-07-30T15:12:07.888Z,91785.81
2022-07-30T15:14:34.267Z,91790.78
2022-07-30T15:17:07.083Z,91785.69
2022-07-30T15:19:50.102Z,91777.63
2022-07-30T15:22:23.527Z,91773.31
2022-07-30T15:24:55.929Z,91774.38
2022-07-30T15:27:34.106Z,91770.50
2022-07-30T15:30:07.501Z,91764.03
2022-07-30T15:32:39.984Z,91768.25
2022-07-30T15:35:13.935Z,91768.00
2022-07-30T15:37:47.407Z,91752.81
2022-07-30T15:40:19.869Z,91749.72
2022-07-30T15:42:53.176Z,91745.41
2022-07-30T15:45:25.619Z,91750.69
2022-07-30T15:47:57.995Z,91764.66
2022-07-30T15:50:30.455Z,91769.09
2022-07-30T15:53:07.954Z,91760.41
2022-07-30T15:55:47.284Z,91776.88
2022-07-30T15:58:20.772Z,91782.38
2022-07-30T16:00:53.320Z,91788.75
2022-07-30T16:03:25.848Z,91798.53
2022-07-30T16:05:58.182Z,91797.94
2022-07-30T16:08:30.594Z,91795.56
2022-07-30T16:11:03.794Z,91798.63
2022-07-30T16:13:36.893Z,91800.56
2022-07-30T16:16:09.285Z,91799.88
2022-07-30T16:18:41.774Z,91802.28
2022-07-30T16:21:14.284Z,91798.41
2022-07-30T16:23:46.653Z,91797.94
2022-07-30T16:26:19.287Z,91813.44
2022-07-30T16:28:52.414Z,91806.44
2022-07-30T16:31:24.790Z,91803.22
2022-07-30T16:33:57.296Z,91803.78
2022-07-30T16:36:29.758Z,91804.88
2022-07-30T16:39:02.175Z,91788.88
2022-07-30T16:41:34.697Z,91789.00
2022-07-30T16:44:07.773Z,91795.31
2022-07-30T16:46:40.181Z,91796.50
2022-07-30T16:49:12.677Z,91798.88
2022-07-30T16:51:45.134Z,91799.81
2022-07-30T16:54:17.540Z,91802.88
2022-07-30T16:56:52.079Z,91804.88
2022-07-30T16:59:25.256Z,91797.81
2022-07-30T17:01:57.616Z,91800.16
2022-07-30T17:04:30.068Z,91800.56
2022-07-30T17:07:02.522Z,91805.22
2022-07-30T17:09:36.777Z,91807.00
2022-07-30T17:12:12.394Z,91800.19
2022-07-30T17:14:45.723Z,91805.56
2022-07-30T17:17:18.201Z,91819.94
2022-07-30T17:19:50.609Z,91833.50
2022-07-30T17:22:23.324Z,91837.13
2022-07-30T17:24:55.766Z,91832.56
2022-07-30T17:27:29.260Z,91819.44
2022-07-30T17:30:04.448Z,91837.28
2022-07-30T17:32:36.827Z,91852.81
2022-07-30T17:35:13.728Z,91871.19
2022-07-30T17:37:46.466Z,91871.72
2022-07-30T17:40:30.226Z,91881.53
2022-07-30T17:43:05.036Z,91892.56
2022-07-30T17:45:38.114Z,91890.72
2022-07-30T17:48:10.447Z,91888.88
2022-07-30T17:50:42.890Z,91875.53
2022-07-30T17:53:15.279Z,91878.13
2022-07-30T17:55:57.900Z,91890.34
2022-07-30T17:58:30.676Z,91892.22
2022-07-30T18:01:04.326Z,91905.53
2022-07-30T18:03:37.635Z,91956.63
2022-07-30T18:06:17.622Z,92019.91
2022-07-30T18:08:50.223Z,92058.47
2022-07-30T18:11:22.925Z,92068.03
2022-07-30T18:13:56.150Z,92076.38
2022-07-30T18:16:29.243Z,92061.47
2022-07-30T18:19:01.654Z,92056.91
2022-07-30T18:21:34.009Z,92098.78
2022-07-30T18:24:11.706Z,92100.28
2022-07-30T18:26:46.166Z,92131.59
2022-07-30T18:29:18.542Z,92135.44
2022-07-30T18:31:51.647Z,92122.88
2022-07-30T18:34:24.017Z,92120.69
2022-07-30T18:36:56.371Z,92112.44
2022-07-30T18:39:28.881Z,92116.09
2022-07-30T18:42:02.807Z,92113.03
2022-07-30T18:44:35.399Z,92129.88
2022-07-30T18:47:09.293Z,92148.38
2022-07-30T18:49:41.764Z,92143.81
2022-07-30T18:52:14.195Z,92144.22
2022-07-30T18:54:46.683Z,92148.78
2022-07-30T18:57:19.204Z,92170.66
2022-07-30T18:59:51.652Z,92190.31
2022-07-30T19:02:24.991Z,92197.72
2022-07-30T19:04:58.234Z,92222.00
2022-07-30T19:07:30.684Z,92211.63
2022-07-30T19:10:23.105Z,92222.25
2022-07-30T19:12:58.872Z,92259.75
2022-07-30T19:15:31.294Z,92275.97
2022-07-30T19:18:04.509Z,92281.34
2022-07-30T19:20:37.054Z,92292.31
2022-07-30T19:23:09.478Z,92297.13
2022-07-30T19:25:42.143Z,92284.75
2022-07-30T19:28:16.402Z,92269.66
2022-07-30T19:30:48.817Z,92254.94
2022-07-30T19:33:23.417Z,92277.31
2022-07-30T19:35:55.849Z,92275.91
2022-07-30T19:38:28.271Z,92244.78
2022-07-30T19:41:00.938Z,92233.38
2022-07-30T19:43:33.569Z,92222.81
2022-07-30T19:46:06.075Z,92200.09
2022-07-30T19:48:39.176Z,92210.47
2022-07-30T19:51:15.678Z,92198.56
2022-07-30T19:53:53.231Z,92188.25
2022-07-30T19:56:25.690Z,92176.44
2022-07-30T19:58:59.504Z,92177.53
2022-07-30T20:01:40.545Z,92172.81
2022-07-30T20:04:14.475Z,92164.31
2022-07-30T20:06:48.191Z,92167.28
2022-07-30T20:09:20.594Z,92149.91
2022-07-30T20:11:53.001Z,92137.69
2022-07-30T20:14:28.477Z,92121.78
2022-07-30T20:17:01.920Z,92094.16
2022-07-30T20:19:36.204Z,92058.59
2022-07-30T20:22:09.727Z,92026.59
2022-07-30T20:24:47.814Z,92004.31
2022-07-30T20:27:37.113Z,91984.09
2022-07-30T20:30:12.370Z,91977.75
2022-07-30T20:32:47.046Z,91973.25
2022-07-30T20:35:20.756Z,91964.22
2022-07-30T20:37:54.962Z,91984.44
2022-07-30T20:40:46.695Z,91981.34
2022-07-30T20:43:19.341Z,91988.59
2022-07-30T20:45:51.719Z,91989.66
2022-07-30T20:48:28.161Z,91989.81
2022-07-30T20:51:01.887Z,92001.63
2022-07-30T20:53:36.945Z,92010.84
2022-07-30T20:56:09.532Z,92012.28
2022-07-30T20:58:45.966Z,92032.97
2022-07-30T21:01:20.024Z,92014.09
2022-07-30T21:03:52.447Z,92017.44
2022-07-30T21:06:26.191Z,92027.53
2022-07-30T21:08:59.058Z,92025.72
2022-07-30T21:11:31.769Z,92026.00
2022-07-30T21:14:09.873Z,92026.84
2022-07-30T21:16:42.783Z,92020.50
2022-07-30T21:19:16.984Z,92031.00
2022-07-30T21:21:53.101Z,92029.09
2022-07-30T21:24:25.480Z,92015.19
2022-07-30T21:26:58.832Z,92015.50
2022-07-30T21:29:33.148Z,91993.66
2022-07-30T21:32:10.077Z,91989.78
2022-07-30T21:34:44.576Z,91990.28
2022-07-30T21:37:18.675Z,91972.47
2022-07-30T21:39:52.058Z,91968.50
2022-07-30T21:42:30.300Z,91956.63
2022-07-30T21:45:03.002Z,91943.28
2022-07-30T21:47:35.725Z,91949.59
2022-07-30T21:50:09.195Z,91955.63
2022-07-30T21:52:42.467Z,91955.09
2022-07-30T21:55:14.888Z,91962.91
2022-07-30T21:57:47.567Z,91967.28
2022-07-30T22:00:30.828Z,91966.06
2022-07-30T22:03:03.280Z,91977.94
2022-07-30T22:05:56.110Z,91981.19
2022-07-30T22:08:29.559Z,91981.00
2022-07-30T22:11:04.899Z,91969.00
2022-07-30T22:13:51.298Z,91980.47
2022-07-30T22:16:25.882Z,91974.31
2022-07-30T22:18:59.836Z,91970.69
2022-07-30T22:21:32.240Z,91970.91
2022-07-30T22:24:05.942Z,91964.44
2022-07-30T22:26:38.807Z,91970.97
2022-07-30T22:29:11.195Z,91978.97
2022-07-30T22:31:44.612Z,91997.63
2022-07-30T22:34:17.005Z,91994.94
2022-07-30T22:36:49.685Z,92003.63
2022-07-30T22:39:22.752Z,91999.56
2022-07-30T22:42:05.516Z,91999.84
2022-07-30T22:45:05.428Z,92000.88
2022-07-30T22:47:50.998Z,92000.31
2022-07-30T22:50:30.407Z,91998.00
2022-07-30T22:53:23.678Z,91993.31
2022-07-30T22:55:57.919Z,91991.75
2022-07-30T22:58:30.364Z,91993.19
2022-07-30T23:01:02.774Z,91981.31
2022-07-30T23:03:35.439Z,91976.47
2022-07-30T23:06:07.856Z,91962.13
2022-07-30T23:08:47.082Z,91954.28
2022-07-30T23:11:20.776Z,91944.06
2022-07-30T23:13:58.240Z,91941.75
2022-07-30T23:16:30.622Z,91943.66
2022-07-30T23:19:03.399Z,91946.63
2022-07-30T23:21:35.805Z,91939.38
2022-07-30T23:24:08.426Z,91936.84
2022-07-30T23:26:43.778Z,91949.41
2022-07-30T23:29:16.111Z,91944.81
2022-07-30T23:31:48.651Z,91945.03
2022-07-30T23:34:21.002Z,91951.81
2022-07-30T23:36:53.404Z,91957.13
2022-07-30T23:39:25.764Z,91952.50
2022-07-30T23:41:58.871Z,91953.50
2022-07-30T23:44:34.334Z,91960.84
2022-07-30T23:47:09.380Z,91959.19
2022-07-30T23:49:41.922Z,91968.88
2022-07-30T23:52:14.294Z,91959.53
2022-07-30T23:54:46.663Z,91957.13
2022-07-30T23:57:19.751Z,91956.00
2022-07-30T23:59:52.182Z,91958.59
